createdAt,value
2019-05-12T00:00:50.697Z,13.49
2019-05-12T00:05:58.276Z,9.16
2019-05-12T00:11:05.980Z,8.66
2019-05-12T00:16:13.582Z,8.35
2019-05-12T00:21:21.495Z,8.78
2019-05-12T00:26:47.612Z,9.55
2019-05-12T00:31:33.493Z,10.05
2019-05-12T00:36:50.246Z,8.85
2019-05-12T00:41:48.261Z,10.33
2019-05-12T00:46:57.576Z,9.52
2019-05-12T00:52:02.812Z,9.79
2019-05-12T00:57:10.894Z,10.83
2019-05-12T01:02:18.482Z,12.61
2019-05-12T01:07:27.763Z,12.20
2019-05-12T01:12:33.204Z,13.30
2019-05-12T01:17:40.868Z,11.38
2019-05-12T01:22:50.516Z,12.01
2019-05-12T01:27:55.640Z,10.41
2019-05-12T01:33:03.242Z,9.77
2019-05-12T01:38:10.877Z,10.40
2019-05-12T01:43:21.021Z,12.18
2019-05-12T01:48:25.670Z,12.44
2019-05-12T01:53:33.280Z,12.41
2019-05-12T01:58:40.912Z,14.51
2019-05-12T02:03:48.522Z,12.56
2019-05-12T02:08:58.140Z,14.45
2019-05-12T02:14:03.336Z,11.89
2019-05-12T02:19:11.172Z,11.65
2019-05-12T02:24:26.542Z,13.74
2019-05-12T02:34:34.958Z,13.49
2019-05-12T02:39:44.254Z,11.90
2019-05-12T02:44:48.620Z,13.64
2019-05-12T02:49:56.219Z,16.48
2019-05-12T02:55:06.019Z,13.79
2019-05-12T03:00:10.839Z,13.36
2019-05-12T03:05:18.445Z,13.44
2019-05-12T03:10:26.066Z,11.14
2019-05-12T03:15:36.639Z,16.09
2019-05-12T03:20:40.816Z,14.77
2019-05-12T03:25:48.413Z,13.93
2019-05-12T03:30:57.509Z,16.88
2019-05-12T03:36:08.641Z,16.39
2019-05-12T03:41:10.292Z,14.12
2019-05-12T03:46:17.899Z,12.73
2019-05-12T03:51:25.501Z,15.93
2019-05-12T03:56:34.611Z,15.66
2019-05-12T04:01:41.064Z,16.00
2019-05-12T04:06:48.709Z,15.81
2019-05-12T04:11:56.296Z,16.85
2019-05-12T04:17:04.834Z,15.31
2019-05-12T04:22:11.140Z,14.72
2019-05-12T04:27:18.869Z,14.59
2019-05-12T04:32:27.023Z,14.93
2019-05-12T04:37:35.351Z,14.72
2019-05-12T04:42:45.209Z,14.01
2019-05-12T04:47:51.742Z,17.00
2019-05-12T04:52:59.354Z,17.73
2019-05-12T04:58:07.012Z,15.39
2019-05-12T05:03:14.580Z,16.43
2019-05-12T05:08:24.393Z,12.19
2019-05-12T05:13:29.360Z,15.83
2019-05-12T05:18:36.956Z,14.75
2019-05-12T05:23:44.569Z,14.68
2019-05-12T05:28:54.165Z,16.76
2019-05-12T05:33:59.312Z,15.83
2019-05-12T05:39:06.964Z,15.67
2019-05-12T05:44:14.590Z,15.59
2019-05-12T05:49:23.785Z,15.73
2019-05-12T05:54:31.582Z,16.41
2019-05-12T05:59:36.987Z,14.91
2019-05-12T06:04:45.477Z,16.77
2019-05-12T06:09:53.645Z,15.05
2019-05-12T06:15:00.001Z,13.29
2019-05-12T06:20:07.333Z,12.76
2019-05-12T06:25:16.098Z,11.20
2019-05-12T06:30:24.156Z,12.90
2019-05-12T06:35:31.039Z,11.05
2019-05-12T06:40:40.707Z,9.71
2019-05-12T06:45:45.773Z,8.95
2019-05-12T06:50:50.707Z,11.33
2019-05-12T06:55:58.341Z,8.81
2019-05-12T07:01:10.485Z,6.92
2019-05-12T07:06:25.318Z,8.85
2019-05-12T07:11:24.258Z,8.36
2019-05-12T07:16:30.401Z,7.67
2019-05-12T07:21:36.534Z,7.32
2019-05-12T07:26:44.607Z,6.89
2019-05-12T07:31:53.521Z,7.03
2019-05-12T07:36:58.468Z,6.03
2019-05-12T07:42:06.066Z,4.93
2019-05-12T07:47:13.857Z,5.79
2019-05-12T07:52:21.338Z,3.49
2019-05-12T07:57:34.491Z,5.02
2019-05-12T08:02:38.405Z,4.51
2019-05-12T08:07:46.292Z,3.85
2019-05-12T08:12:59.531Z,3.18
2019-05-12T08:18:07.667Z,3.51
2019-05-12T08:23:10.786Z,4.10
2019-05-12T08:28:19.252Z,2.69
2019-05-12T08:33:25.341Z,2.53
2019-05-12T08:38:33.720Z,2.93
2019-05-12T08:43:40.754Z,4.67
2019-05-12T08:48:51.685Z,3.41
2019-05-12T08:54:02.440Z,3.92
2019-05-12T08:59:04.083Z,3.35
2019-05-12T09:04:13.124Z,4.49
2019-05-12T09:09:15.849Z,3.87
2019-05-12T09:14:23.940Z,3.41
2019-05-12T09:19:40.595Z,3.69
2019-05-12T09:24:46.983Z,3.54
2019-05-12T09:29:43.682Z,3.15
2019-05-12T09:34:53.064Z,2.93
2019-05-12T09:39:58.424Z,2.96
2019-05-12T09:45:15.798Z,3.41
2019-05-12T09:50:16.053Z,2.36
2019-05-12T09:55:29.125Z,1.84
2019-05-12T10:00:40.894Z,2.85
2019-05-12T10:05:30.545Z,2.72
2019-05-12T10:10:40.104Z,3.38
2019-05-12T10:15:42.208Z,4.25
2019-05-12T10:21:00.222Z,2.69
2019-05-12T10:26:01.427Z,3.92
2019-05-12T10:31:04.314Z,2.22
2019-05-12T10:36:11.878Z,2.81
2019-05-12T10:41:19.621Z,3.64
2019-05-12T10:46:28.591Z,3.11
2019-05-12T10:51:34.461Z,2.01
2019-05-12T10:56:43.829Z,2.29
2019-05-12T11:01:49.278Z,2.26
2019-05-12T11:06:56.788Z,2.35
2019-05-12T11:12:04.442Z,2.71
2019-05-12T11:17:13.835Z,2.16
2019-05-12T11:22:19.556Z,3.03
2019-05-12T11:27:27.161Z,2.82
2019-05-12T11:32:37.828Z,2.57
2019-05-12T11:37:41.899Z,2.13
2019-05-12T11:42:59.042Z,2.55
2019-05-12T11:48:05.071Z,2.25
2019-05-12T11:53:04.489Z,3.17
2019-05-12T11:58:12.027Z,2.69
2019-05-12T12:03:19.630Z,3.66
2019-05-12T12:08:35.632Z,2.81
2019-05-12T12:13:34.368Z,3.31
2019-05-12T12:18:48.596Z,3.31
2019-05-12T12:23:50.188Z,4.55
2019-05-12T12:28:56.373Z,2.50
2019-05-12T12:34:04.036Z,2.70
2019-05-12T12:39:13.682Z,3.33
2019-05-12T12:44:21.264Z,2.90
2019-05-12T12:49:29.395Z,2.30
2019-05-12T12:54:36.309Z,3.14
2019-05-12T12:59:51.104Z,2.60
2019-05-12T13:04:51.080Z,2.82
2019-05-12T13:10:04.697Z,3.23
2019-05-12T13:15:05.828Z,3.35
2019-05-12T13:20:13.490Z,3.40
2019-05-12T13:25:21.081Z,2.48
2019-05-12T13:30:42.804Z,3.33
2019-05-12T13:35:35.968Z,2.51
2019-05-12T13:40:44.246Z,2.47
2019-05-12T13:45:50.760Z,2.71
2019-05-12T13:51:12.390Z,3.31
2019-05-12T13:56:04.850Z,2.71
2019-05-12T14:01:19.130Z,1.77
2019-05-12T14:06:23.224Z,2.17
2019-05-12T14:11:25.312Z,2.32
2019-05-12T14:16:33.895Z,3.29
2019-05-12T14:21:41.336Z,3.71
2019-05-12T14:26:49.409Z,2.51
2019-05-12T14:31:59.410Z,2.60
2019-05-12T14:37:08.390Z,2.74
2019-05-12T14:42:08.695Z,2.53
2019-05-12T14:47:19.253Z,2.14
2019-05-12T14:52:23.409Z,2.44
2019-05-12T14:57:37.435Z,2.57
2019-05-12T15:02:38.376Z,3.55
2019-05-12T15:07:51.172Z,3.84
2019-05-12T15:12:54.331Z,6.09
2019-05-12T15:18:03.084Z,5.36
2019-05-12T15:23:07.503Z,3.72
2019-05-12T15:28:15.092Z,2.58
2019-05-12T15:33:24.278Z,3.80
2019-05-12T15:38:29.837Z,3.43
2019-05-12T15:48:44.745Z,3.13
2019-05-12T15:53:57.282Z,3.25
2019-05-12T15:59:00.993Z,2.76
2019-05-12T16:04:06.585Z,4.04
2019-05-12T16:09:14.188Z,3.84
2019-05-12T16:14:23.376Z,2.77
2019-05-12T16:19:28.928Z,3.94
2019-05-12T16:24:36.517Z,3.75
2019-05-12T16:29:48.354Z,3.09
2019-05-12T16:34:51.309Z,3.96
2019-05-12T16:39:58.920Z,3.37
2019-05-12T16:45:10.106Z,2.62
2019-05-12T16:50:15.144Z,2.83
2019-05-12T16:55:20.868Z,3.06
2019-05-12T17:00:30.945Z,2.62
2019-05-12T17:05:35.999Z,3.46
2019-05-12T17:10:49.089Z,3.06
2019-05-12T17:15:55.375Z,2.23
2019-05-12T17:20:57.888Z,2.33
2019-05-12T17:26:05.516Z,1.84
2019-05-12T17:31:13.150Z,2.99
2019-05-12T17:36:24.234Z,2.86
2019-05-12T17:41:31.448Z,2.51
2019-05-12T17:46:38.158Z,3.14
2019-05-12T17:51:43.244Z,2.93
2019-05-12T17:56:50.892Z,2.03
2019-05-12T18:01:58.501Z,3.02
2019-05-12T18:07:13.165Z,2.15
2019-05-12T18:12:14.007Z,2.05
2019-05-12T18:17:23.566Z,2.25
2019-05-12T18:22:28.658Z,3.97
2019-05-12T18:27:44.645Z,2.23
2019-05-12T18:32:43.409Z,4.19
2019-05-12T18:37:51.058Z,4.37
2019-05-12T18:42:58.685Z,3.27
2019-05-12T18:48:16.770Z,2.68
2019-05-12T18:53:22.285Z,2.46
2019-05-12T18:58:21.825Z,2.80
2019-05-12T19:03:27.764Z,3.13
2019-05-12T19:08:35.348Z,2.55
2019-05-12T19:18:50.460Z,3.32
2019-05-12T19:23:58.069Z,4.11
2019-05-12T19:29:05.683Z,3.42
2019-05-12T19:34:19.830Z,2.81
2019-05-12T19:39:20.426Z,3.61
2019-05-12T19:44:30.664Z,4.29
2019-05-12T19:49:46.598Z,3.94
2019-05-12T19:54:44.338Z,4.68
2019-05-12T19:59:51.146Z,3.88
2019-05-12T20:04:56.945Z,5.66
2019-05-12T20:10:04.860Z,3.71
2019-05-12T20:15:11.640Z,3.86
2019-05-12T20:20:19.405Z,4.52
2019-05-12T20:25:27.012Z,5.49
2019-05-12T20:30:34.689Z,4.16
2019-05-12T20:35:45.130Z,3.76
2019-05-12T20:40:49.490Z,3.39
2019-05-12T20:45:57.096Z,4.74
2019-05-12T20:51:08.723Z,3.85
2019-05-12T20:56:12.269Z,4.06
2019-05-12T21:01:20.316Z,4.82
2019-05-12T21:06:26.327Z,5.03
2019-05-12T21:11:33.973Z,3.86
2019-05-12T21:16:44.455Z,4.88
2019-05-12T21:21:49.232Z,4.39
2019-05-12T21:26:56.924Z,6.12
2019-05-12T21:32:12.162Z,5.44
2019-05-12T21:37:13.773Z,5.68
2019-05-12T21:42:18.807Z,5.41
2019-05-12T21:47:26.398Z,5.18
2019-05-12T21:52:39.050Z,4.47
2019-05-12T21:57:43.537Z,6.76
2019-05-12T22:02:48.293Z,6.62
2019-05-12T22:07:55.937Z,5.59
2019-05-12T22:13:06.900Z,6.15
2019-05-12T22:18:10.729Z,5.66
2019-05-12T22:23:18.318Z,7.42
2019-05-12T22:28:25.932Z,4.94
2019-05-12T22:33:33.578Z,6.65
2019-05-12T22:38:41.332Z,5.73
2019-05-12T22:43:48.916Z,6.61
2019-05-12T22:48:56.578Z,5.90
2019-05-12T22:54:06.908Z,6.44
2019-05-12T22:59:13.634Z,5.38
2019-05-12T23:04:18.413Z,6.43
2019-05-12T23:09:29.909Z,5.61
2019-05-12T23:14:34.059Z,7.61
2019-05-12T23:19:43.045Z,5.72
2019-05-12T23:24:47.822Z,5.62
2019-05-12T23:29:55.521Z,6.75
2019-05-12T23:35:03.836Z,8.62
2019-05-12T23:40:14.587Z,7.04
2019-05-12T23:45:17.365Z,5.53
2019-05-12T23:50:25.096Z,5.03
2019-05-12T23:55:34.690Z,7.28
